createdAt,value
2022-09-15T03:44:01.840Z,19.69
2022-09-15T03:47:05.652Z,19.69
2022-09-15T03:50:09.042Z,19.17
2022-09-15T03:53:12.528Z,19.18
2022-09-15T03:56:27.382Z,19.15
2022-09-15T03:59:30.502Z,19.11
2022-09-15T04:02:33.709Z,19.11
2022-09-15T04:05:37.488Z,19.12
2022-09-15T04:08:40.303Z,19.15
2022-09-15T04:11:44.231Z,19.18
2022-09-15T04:14:46.987Z,19.17
2022-09-15T04:17:50.096Z,19.21
2022-09-15T04:20:52.861Z,19.30
2022-09-15T04:23:55.994Z,19.30
2022-09-15T04:26:59.016Z,19.31
2022-09-15T04:30:02.786Z,19.30
2022-09-15T04:33:08.272Z,19.26
2022-09-15T04:36:15.600Z,19.27
2022-09-15T04:39:19.587Z,19.27
2022-09-15T04:42:22.702Z,19.29
2022-09-15T04:45:27.259Z,19.31
2022-09-15T04:48:31.819Z,19.55
2022-09-15T04:51:34.724Z,19.75
2022-09-15T04:54:37.792Z,20.00
2022-09-15T04:57:40.559Z,20.09
2022-09-15T05:00:43.675Z,20.23
2022-09-15T05:03:47.488Z,20.39
2022-09-15T05:06:50.418Z,20.46
2022-09-15T05:09:53.276Z,20.52
2022-09-15T05:12:56.259Z,20.55
2022-09-15T05:16:07.602Z,20.73
2022-09-15T05:19:11.585Z,20.71
2022-09-15T05:22:14.472Z,20.67
2022-09-15T05:25:17.821Z,20.68
2022-09-15T05:28:20.878Z,20.77
2022-09-15T05:31:27.506Z,20.75
2022-09-15T05:34:30.211Z,20.66
2022-09-15T05:37:33.921Z,20.67
2022-09-15T05:40:37.020Z,20.65
2022-09-15T05:43:40.284Z,20.61
2022-09-15T05:46:43.346Z,20.65
2022-09-15T05:49:46.487Z,20.70
2022-09-15T05:52:52.874Z,20.77
2022-09-15T05:56:00.767Z,20.88
2022-09-15T05:59:03.555Z,20.93
2022-09-15T06:02:06.678Z,21.10
2022-09-15T06:05:10.155Z,21.24
2022-09-15T06:08:12.998Z,21.41
2022-09-15T06:11:19.059Z,21.51
2022-09-15T06:14:22.411Z,21.47
2022-09-15T06:17:25.554Z,21.47
2022-09-15T06:20:28.845Z,21.45
2022-09-15T06:23:32.499Z,21.56
2022-09-15T06:26:38.393Z,21.73
2022-09-15T06:29:41.557Z,21.85
2022-09-15T06:32:48.129Z,21.94
2022-09-15T06:35:51.492Z,22.09
2022-09-15T06:38:54.899Z,22.35
2022-09-15T06:42:05.869Z,22.54
2022-09-15T06:45:10.625Z,22.67
2022-09-15T06:48:24.416Z,22.66
2022-09-15T06:51:31.372Z,22.63
2022-09-15T06:54:34.760Z,22.73
2022-09-15T06:57:37.306Z,22.78
2022-09-15T07:00:40.423Z,22.64
2022-09-15T07:03:44.024Z,22.44
2022-09-15T07:06:46.986Z,22.24
2022-09-15T07:09:50.035Z,22.30
2022-09-15T07:12:53.122Z,22.49
2022-09-15T07:16:01.403Z,22.76
2022-09-15T07:19:05.926Z,22.94
2022-09-15T07:22:08.846Z,22.60
2022-09-15T07:25:11.989Z,22.51
2022-09-15T07:28:15.382Z,22.52
2022-09-15T07:31:20.898Z,22.59
2022-09-15T07:34:23.758Z,22.87
2022-09-15T07:37:27.080Z,23.01
2022-09-15T07:40:32.207Z,23.16
2022-09-15T07:43:35.539Z,23.49
2022-09-15T07:46:38.220Z,23.67
2022-09-15T07:49:42.196Z,23.74
2022-09-15T07:52:44.880Z,23.90
2022-09-15T07:55:55.351Z,23.96
2022-09-15T07:58:58.455Z,24.05
2022-09-15T08:02:02.118Z,24.28
2022-09-15T08:05:06.020Z,24.32
2022-09-15T08:08:08.986Z,24.28
2022-09-15T08:11:19.121Z,24.16
2022-09-15T08:14:22.184Z,24.42
2022-09-15T08:17:25.347Z,24.47
2022-09-15T08:20:28.768Z,24.45
2022-09-15T08:23:32.414Z,24.28
2022-09-15T08:26:38.380Z,24.28
2022-09-15T08:29:41.273Z,24.29
2022-09-15T08:32:44.302Z,24.55
2022-09-15T08:35:47.515Z,24.59
2022-09-15T08:38:51.050Z,24.73
2022-09-15T08:41:55.663Z,25.00
2022-09-15T08:45:28.608Z,25.08
2022-09-15T08:48:48.704Z,25.28
2022-09-15T08:51:53.369Z,25.51
2022-09-15T08:54:58.918Z,25.63
2022-09-15T08:58:01.755Z,25.61
2022-09-15T09:01:11.309Z,25.72
2022-09-15T09:04:36.106Z,25.91
2022-09-15T09:08:04.099Z,26.22
2022-09-15T09:11:26.079Z,26.27
2022-09-15T09:14:38.795Z,26.24
2022-09-15T09:18:29.473Z,26.42
2022-09-15T09:21:41.302Z,26.74
2022-09-15T09:24:47.903Z,26.54
2022-09-15T09:27:51.176Z,26.41
2022-09-15T09:30:57.821Z,26.44
2022-09-15T09:34:06.314Z,26.62
2022-09-15T09:37:12.113Z,26.55
2022-09-15T09:40:16.937Z,26.71
2022-09-15T09:43:20.297Z,27.10
2022-09-15T09:46:23.152Z,27.47
2022-09-15T09:49:30.066Z,27.26
2022-09-15T09:52:34.457Z,27.33
2022-09-15T09:55:38.412Z,27.63
2022-09-15T09:58:42.247Z,27.77
2022-09-15T10:02:05.074Z,28.04
2022-09-15T10:05:08.437Z,28.00
2022-09-15T10:08:20.014Z,27.80
2022-09-15T10:11:40.605Z,27.72
2022-09-15T10:14:45.457Z,27.27
2022-09-15T10:17:49.907Z,27.32
2022-09-15T10:20:53.082Z,27.45
2022-09-15T10:23:56.439Z,27.80
2022-09-15T10:27:17.908Z,28.11
2022-09-15T10:30:21.952Z,28.54
2022-09-15T10:33:27.775Z,28.99
2022-09-15T10:36:32.045Z,28.64
2022-09-15T10:39:41.019Z,28.80
2022-09-15T10:43:15.339Z,28.38
2022-09-15T10:46:27.791Z,28.11
2022-09-15T10:49:57.564Z,28.09
2022-09-15T10:53:10.642Z,28.16
2022-09-15T10:56:30.511Z,28.05
2022-09-15T11:00:00.467Z,28.42
2022-09-15T11:03:37.979Z,28.65
2022-09-15T11:07:02.024Z,29.02
2022-09-15T11:10:20.414Z,29.27
2022-09-15T11:13:36.196Z,29.13
2022-09-15T11:16:57.888Z,28.83
2022-09-15T11:20:23.963Z,28.35
2022-09-15T11:23:40.532Z,27.83
2022-09-15T11:26:54.879Z,27.29
2022-09-15T11:30:14.418Z,26.91
2022-09-15T11:33:23.370Z,26.74
2022-09-15T11:36:52.119Z,26.44
2022-09-15T11:40:12.998Z,26.21
2022-09-15T11:43:18.595Z,26.04
2022-09-15T11:46:30.671Z,26.06
2022-09-15T11:49:39.950Z,26.13
2022-09-15T11:53:01.753Z,26.29
2022-09-15T11:56:44.953Z,26.55
2022-09-15T12:00:00.795Z,26.83
2022-09-15T12:03:32.115Z,27.44
2022-09-15T12:06:52.313Z,27.77
2022-09-15T12:09:56.630Z,27.62
2022-09-15T12:13:00.939Z,27.33
2022-09-15T12:16:04.165Z,26.94
2022-09-15T12:19:37.283Z,26.40
2022-09-15T12:22:52.082Z,25.91
2022-09-15T12:26:05.213Z,25.61
2022-09-15T12:29:26.304Z,25.45
2022-09-15T12:32:31.974Z,25.21
2022-09-15T12:35:35.153Z,24.77
2022-09-15T12:38:38.132Z,24.33
2022-09-15T12:41:47.934Z,24.01
2022-09-15T12:44:52.543Z,23.13
2022-09-15T12:48:05.608Z,22.68
2022-09-15T12:51:11.035Z,22.22
2022-09-15T12:54:23.074Z,22.12
2022-09-15T12:57:37.043Z,21.89
2022-09-15T13:01:00.669Z,21.79
2022-09-15T13:04:04.775Z,21.59
2022-09-15T13:07:17.258Z,21.37
2022-09-15T13:10:32.057Z,21.06
2022-09-15T13:13:51.920Z,20.69
2022-09-15T13:17:07.870Z,20.23
2022-09-15T13:20:16.791Z,19.88
2022-09-15T13:23:25.063Z,19.62
2022-09-15T13:26:31.782Z,19.26
2022-09-15T13:29:43.607Z,18.85
2022-09-15T13:33:16.761Z,18.38
2022-09-15T13:38:04.139Z,18.13
2022-09-15T13:40:13.696Z,17.91
2022-09-15T13:43:41.147Z,17.81
2022-09-15T13:47:01.574Z,17.69
2022-09-15T13:50:10.477Z,17.75
2022-09-15T13:53:47.443Z,17.74
2022-09-15T13:56:53.375Z,17.81
2022-09-15T13:59:56.044Z,17.88
2022-09-15T14:03:01.594Z,17.88
2022-09-15T14:06:16.769Z,17.82
2022-09-15T14:09:24.568Z,17.96
2022-09-15T14:12:28.602Z,18.01
2022-09-15T14:15:31.183Z,17.97
2022-09-15T14:18:42.016Z,17.85
2022-09-15T14:21:53.840Z,17.94
2022-09-15T14:25:16.804Z,18.00
2022-09-15T14:28:27.292Z,17.95
2022-09-15T14:31:40.564Z,18.02
2022-09-15T14:37:55.820Z,17.93
2022-09-15T14:40:59.692Z,17.81
2022-09-15T14:45:54.610Z,17.80
2022-09-15T14:47:43.644Z,17.79
2022-09-15T14:50:58.072Z,17.82
2022-09-15T14:54:03.165Z,17.74
2022-09-15T14:57:09.104Z,17.83
2022-09-15T15:00:22.907Z,17.88
2022-09-15T15:03:58.042Z,17.92
2022-09-15T15:07:09.524Z,17.99
2022-09-15T15:10:35.648Z,17.94
2022-09-15T15:13:42.718Z,17.94
2022-09-15T15:17:02.342Z,18.02
2022-09-15T15:20:05.920Z,17.99
2022-09-15T15:23:25.062Z,18.08
2022-09-15T15:26:36.735Z,18.05
2022-09-15T15:29:45.904Z,17.97
2022-09-15T15:32:48.455Z,17.94
2022-09-15T15:36:07.129Z,17.90
2022-09-15T15:39:27.101Z,18.00
2022-09-15T15:42:30.262Z,18.07
2022-09-15T15:45:49.937Z,18.12
2022-09-15T15:48:53.335Z,18.17
2022-09-15T15:51:58.344Z,18.24
2022-09-15T15:55:01.205Z,18.25
2022-09-15T15:58:04.507Z,18.39
2022-09-15T16:01:11.749Z,18.51
2022-09-15T16:04:14.873Z,18.65
2022-09-15T16:07:20.824Z,18.63
2022-09-15T16:10:28.096Z,18.59
2022-09-15T16:13:31.064Z,18.49
2022-09-15T16:16:34.038Z,18.46
2022-09-15T16:19:36.834Z,18.38
2022-09-15T16:22:40.606Z,18.34
